Tropical Cyclones
[Index]
Main Index Home Page Stock Weather Photos Extreme Storms Discussion Storm News and Storm Chasing Reports Tropical Cyclones / Hurricanes / Typhoons Weather Data and Links Wild Fires / Bushfires Weather Observation Techniques Weather Picture Catalogue Tornado Pictures and Reports Stock Video Footage and DVDs for sale
Season 1968-1969 Tropical Cyclone 196930 Track Map
Season 1968-1969 Summaries: [BoM-AU] [JTWC-AU] [JTWC-SIO] [JTWC-SPAC] [JTWC-SH]
<<- Previous TC | JTWC 1968-1969 Season | Next TC ->>

click for intensity scale information  Lat/long Grid: Show Hide

 Date Labels: Show Hide

Joint Typhoon Warning Centre Cyclone Data

Name: 196930
Number: 708 / 6930

29 Mar 1969 00:00 UTC to 06 Apr 1969 18:00 UTC

    date/time    lat    long     hPa   cat  kts
1969-03-29 00   10.2    97.1                  10          
1969-03-29 06   11.0    97.4                  15          
1969-03-29 12   11.8    97.9                  15          
1969-03-29 18   12.9    98.5                  10          
1969-03-30 00   13.7    98.7                  10          
1969-03-30 06   13.9    98.6                  15          
1969-03-30 12   14.0    98.4                  20          
1969-03-30 18   13.9    98.2                  15          
1969-03-31 00   14.1    98.1                  15          
1969-03-31 06   14.4    98.0                  25          
1969-03-31 12   14.9    98.0                  30          
1969-03-31 18   15.4    98.0            1     40          
1969-04-01 00   15.9    98.0            1     40          
1969-04-01 06   16.4    98.2                  30          
1969-04-01 12   16.9    98.5                  25          
1969-04-01 18   17.4    98.8                  15          
1969-04-02 00   18.0    98.9                  15          
1969-04-02 06   18.9    99.0                  15          
1969-04-02 12   19.8    99.0                  20          
1969-04-02 18   20.9    99.0                  30          
1969-04-03 00   21.7    99.0                  30          
1969-04-03 06   21.9    99.0                  30          
1969-04-03 12   22.0    99.0                  25          
1969-04-03 18   21.9    99.0                  20          
1969-04-04 00   22.2    99.0                  15          
1969-04-04 06   22.9    99.4                  15          
1969-04-04 12   23.8    99.8                  15          
1969-04-04 18   24.8   100.2                  25          
1969-04-05 00   25.8   101.2                  30          
1969-04-05 06   26.8   103.1                  25          
1969-04-05 12   27.8   105.3                  20          
1969-04-05 18   28.8   107.5                  20          
1969-04-06 00   29.9   109.8                  20          
1969-04-06 06   31.3   112.1                  25          
1969-04-06 12   32.8   114.5                  30          
1969-04-06 18   34.3   117.1                  35          
Winds are 1-min average.

Tropical cyclone tracks developed by Michael Bath using data from the Joint Typhoon Warning Centre Best Tracks and Google Maps.


[Australian Severe Weather index] [Copyright Notice] [Email Contacts] [Search This Site] [Privacy Policy]
Document: tropical_cyclone_196930.htm Updated: 18 September 2016